sensor_id;sensor_type;location;lat;lon;timestamp;temperature;humidity
11423;DHT22;5768;51.476;7.210;2023-03-01T00:03:59;2.90;11.60
11423;DHT22;5768;51.476;7.210;2023-03-01T00:09:03;2.90;11.60
11423;DHT22;5768;51.476;7.210;2023-03-01T00:14:05;2.90;11.60
11423;DHT22;5768;51.476;7.210;2023-03-01T00:19:12;2.80;11.60
11423;DHT22;5768;51.476;7.210;2023-03-01T00:24:17;2.80;11.70
11423;DHT22;5768;51.476;7.210;2023-03-01T00:29:19;2.80;11.70
11423;DHT22;5768;51.476;7.210;2023-03-01T00:34:21;2.70;11.70
11423;DHT22;5768;51.476;7.210;2023-03-01T00:39:24;2.70;11.70
11423;DHT22;5768;51.476;7.210;2023-03-01T00:44:26;2.60;11.70
11423;DHT22;5768;51.476;7.210;2023-03-01T00:49:29;2.60;11.80
11423;DHT22;5768;51.476;7.210;2023-03-01T00:54:32;2.50;11.80
11423;DHT22;5768;51.476;7.210;2023-03-01T00:59:34;2.50;11.80
11423;DHT22;5768;51.476;7.210;2023-03-01T01:04:36;2.40;11.90
11423;DHT22;5768;51.476;7.210;2023-03-01T01:09:40;2.40;11.90
11423;DHT22;5768;51.476;7.210;2023-03-01T01:14:43;2.40;11.90
11423;DHT22;5768;51.476;7.210;2023-03-01T01:19:45;2.40;12.00
11423;DHT22;5768;51.476;7.210;2023-03-01T01:24:48;2.30;11.90
11423;DHT22;5768;51.476;7.210;2023-03-01T01:29:52;2.30;12.00
11423;DHT22;5768;51.476;7.210;2023-03-01T01:34:55;2.20;12.10
11423;DHT22;5768;51.476;7.210;2023-03-01T01:39:58;2.10;12.10
11423;DHT22;5768;51.476;7.210;2023-03-01T01:45:27;2.10;12.20
11423;DHT22;5768;51.476;7.210;2023-03-01T01:50:33;2.10;12.20
11423;DHT22;5768;51.476;7.210;2023-03-01T01:55:42;2.10;12.10
11423;DHT22;5768;51.476;7.210;2023-03-01T02:00:47;2.10;12.10
11423;DHT22;5768;51.476;7.210;2023-03-01T02:05:52;2.10;12.20
11423;DHT22;5768;51.476;7.210;2023-03-01T02:11:01;2.00;12.20
11423;DHT22;5768;51.476;7.210;2023-03-01T02:16:05;2.10;12.20
11423;DHT22;5768;51.476;7.210;2023-03-01T02:21:20;1.90;12.30
11423;DHT22;5768;51.476;7.210;2023-03-01T02:26:45;1.90;12.30
11423;DHT22;5768;51.476;7.210;2023-03-01T02:31:52;2.10;12.30
11423;DHT22;5768;51.476;7.210;2023-03-01T02:37:01;1.90;12.30
11423;DHT22;5768;51.476;7.210;2023-03-01T02:42:06;1.80;12.30
11423;DHT22;5768;51.476;7.210;2023-03-01T02:47:09;1.90;12.30
11423;DHT22;5768;51.476;7.210;2023-03-01T02:52:27;1.80;12.40
11423;DHT22;5768;51.476;7.210;2023-03-01T02:57:38;1.80;12.40
11423;DHT22;5768;51.476;7.210;2023-03-01T03:02:43;1.70;12.40
11423;DHT22;5768;51.476;7.210;2023-03-01T03:07:47;1.60;12.40
11423;DHT22;5768;51.476;7.210;2023-03-01T03:12:51;1.60;12.40
11423;DHT22;5768;51.476;7.210;2023-03-01T03:17:56;1.60;12.50
11423;DHT22;5768;51.476;7.210;2023-03-01T03:22:59;1.50;12.50
11423;DHT22;5768;51.476;7.210;2023-03-01T03:28:02;1.60;12.50
11423;DHT22;5768;51.476;7.210;2023-03-01T03:33:12;1.50;12.50
11423;DHT22;5768;51.476;7.210;2023-03-01T03:38:16;1.50;12.50
11423;DHT22;5768;51.476;7.210;2023-03-01T03:43:23;1.50;12.50
11423;DHT22;5768;51.476;7.210;2023-03-01T03:48:26;1.50;12.50
11423;DHT22;5768;51.476;7.210;2023-03-01T03:53:29;1.40;12.50
11423;DHT22;5768;51.476;7.210;2023-03-01T03:58:31;1.40;12.50
11423;DHT22;5768;51.476;7.210;2023-03-01T04:03:34;1.40;12.60
11423;DHT22;5768;51.476;7.210;2023-03-01T04:08:36;1.40;12.60
11423;DHT22;5768;51.476;7.210;2023-03-01T04:13:38;1.30;12.60
11423;DHT22;5768;51.476;7.210;2023-03-01T04:18:42;1.40;12.60
11423;DHT22;5768;51.476;7.210;2023-03-01T04:23:44;1.30;12.70
11423;DHT22;5768;51.476;7.210;2023-03-01T04:28:46;1.30;12.70
11423;DHT22;5768;51.476;7.210;2023-03-01T04:33:54;1.30;12.80
11423;DHT22;5768;51.476;7.210;2023-03-01T04:38:56;1.20;12.80
11423;DHT22;5768;51.476;7.210;2023-03-01T04:43:58;1.30;12.80
11423;DHT22;5768;51.476;7.210;2023-03-01T04:49:06;1.30;12.80
11423;DHT22;5768;51.476;7.210;2023-03-01T04:54:08;1.30;12.70
11423;DHT22;5768;51.476;7.210;2023-03-01T04:59:10;1.30;12.70
11423;DHT22;5768;51.476;7.210;2023-03-01T05:04:14;1.20;12.70
11423;DHT22;5768;51.476;7.210;2023-03-01T05:09:16;1.20;12.80
11423;DHT22;5768;51.476;7.210;2023-03-01T05:14:18;1.10;12.80
11423;DHT22;5768;51.476;7.210;2023-03-01T05:19:22;1.10;12.80
11423;DHT22;5768;51.476;7.210;2023-03-01T05:24:24;1.10;12.80
11423;DHT22;5768;51.476;7.210;2023-03-01T05:29:29;1.10;12.80
11423;DHT22;5768;51.476;7.210;2023-03-01T05:34:36;1.00;12.80
11423;DHT22;5768;51.476;7.210;2023-03-01T05:39:39;1.00;13.00
11423;DHT22;5768;51.476;7.210;2023-03-01T05:44:45;1.00;13.00
11423;DHT22;5768;51.476;7.210;2023-03-01T05:49:48;1.00;13.00
11423;DHT22;5768;51.476;7.210;2023-03-01T05:54:50;1.00;13.00
11423;DHT22;5768;51.476;7.210;2023-03-01T05:59:52;0.90;13.10
11423;DHT22;5768;51.476;7.210;2023-03-01T06:04:56;0.90;13.10
11423;DHT22;5768;51.476;7.210;2023-03-01T06:09:58;0.80;13.10
11423;DHT22;5768;51.476;7.210;2023-03-01T06:15:01;0.90;13.30
11423;DHT22;5768;51.476;7.210;2023-03-01T06:20:07;0.80;13.20
11423;DHT22;5768;51.476;7.210;2023-03-01T06:25:13;0.90;13.30
11423;DHT22;5768;51.476;7.210;2023-03-01T06:30:17;0.90;13.30
11423;DHT22;5768;51.476;7.210;2023-03-01T06:35:22;0.90;13.20
11423;DHT22;5768;51.476;7.210;2023-03-01T06:40:25;1.00;13.20
11423;DHT22;5768;51.476;7.210;2023-03-01T06:45:28;1.00;13.20
11423;DHT22;5768;51.476;7.210;2023-03-01T06:50:32;1.00;13.10
11423;DHT22;5768;51.476;7.210;2023-03-01T06:55:35;1.10;13.20
11423;DHT22;5768;51.476;7.210;2023-03-01T07:00:37;1.20;13.10
11423;DHT22;5768;51.476;7.210;2023-03-01T07:05:42;1.30;13.10
11423;DHT22;5768;51.476;7.210;2023-03-01T07:10:44;1.30;13.10
11423;DHT22;5768;51.476;7.210;2023-03-01T07:15:47;1.40;13.00
11423;DHT22;5768;51.476;7.210;2023-03-01T07:20:50;1.60;12.90
11423;DHT22;5768;51.476;7.210;2023-03-01T07:25:53;1.60;12.80
11423;DHT22;5768;51.476;7.210;2023-03-01T07:31:00;1.70;12.80
11423;DHT22;5768;51.476;7.210;2023-03-01T07:36:05;1.70;12.70
11423;DHT22;5768;51.476;7.210;2023-03-01T07:41:08;1.80;12.70
11423;DHT22;5768;51.476;7.210;2023-03-01T07:46:10;2.10;12.70
11423;DHT22;5768;51.476;7.210;2023-03-01T07:51:13;2.20;14.40
11423;DHT22;5768;51.476;7.210;2023-03-01T07:56:16;2.30;13.40
11423;DHT22;5768;51.476;7.210;2023-03-01T08:01:20;2.40;12.90
11423;DHT22;5768;51.476;7.210;2023-03-01T08:06:24;2.70;12.60
11423;DHT22;5768;51.476;7.210;2023-03-01T08:11:26;2.70;12.40
11423;DHT22;5768;51.476;7.210;2023-03-01T08:16:29;2.90;12.30
11423;DHT22;5768;51.476;7.210;2023-03-01T08:21:32;3.10;12.30
11423;DHT22;5768;51.476;7.210;2023-03-01T08:26:36;3.30;12.20
11423;DHT22;5768;51.476;7.210;2023-03-01T08:31:39;3.40;12.10
11423;DHT22;5768;51.476;7.210;2023-03-01T08:36:44;3.50;12.00
11423;DHT22;5768;51.476;7.210;2023-03-01T08:41:47;3.70;11.90
11423;DHT22;5768;51.476;7.210;2023-03-01T08:46:49;3.80;11.80
11423;DHT22;5768;51.476;7.210;2023-03-01T08:51:54;4.10;11.70
11423;DHT22;5768;51.476;7.210;2023-03-01T08:56:56;4.20;11.50
11423;DHT22;5768;51.476;7.210;2023-03-01T09:01:59;4.30;11.60
11423;DHT22;5768;51.476;7.210;2023-03-01T09:07:03;4.40;11.40
11423;DHT22;5768;51.476;7.210;2023-03-01T09:12:05;4.40;11.30
11423;DHT22;5768;51.476;7.210;2023-03-01T09:17:07;4.50;11.20
11423;DHT22;5768;51.476;7.210;2023-03-01T09:22:11;4.60;11.10
11423;DHT22;5768;51.476;7.210;2023-03-01T09:27:13;4.80;11.20
11423;DHT22;5768;51.476;7.210;2023-03-01T09:32:15;4.90;11.00
11423;DHT22;5768;51.476;7.210;2023-03-01T09:37:18;5.10;10.90
11423;DHT22;5768;51.476;7.210;2023-03-01T09:42:20;5.40;11.00
11423;DHT22;5768;51.476;7.210;2023-03-01T09:47:25;5.40;11.00
11423;DHT22;5768;51.476;7.210;2023-03-01T09:52:34;5.60;10.80
11423;DHT22;5768;51.476;7.210;2023-03-01T09:57:47;5.60;10.60
11423;DHT22;5768;51.476;7.210;2023-03-01T10:02:57;5.70;10.50
11423;DHT22;5768;51.476;7.210;2023-03-01T10:08:28;5.80;10.40
11423;DHT22;5768;51.476;7.210;2023-03-01T10:13:45;5.80;10.30
11423;DHT22;5768;51.476;7.210;2023-03-01T10:18:56;5.90;10.30
11423;DHT22;5768;51.476;7.210;2023-03-01T10:24:12;6.00;10.20
11423;DHT22;5768;51.476;7.210;2023-03-01T10:29:15;6.00;10.30
11423;DHT22;5768;51.476;7.210;2023-03-01T10:34:18;6.10;10.50
11423;DHT22;5768;51.476;7.210;2023-03-01T10:39:24;6.20;10.20
11423;DHT22;5768;51.476;7.210;2023-03-01T10:44:40;6.10;10.10
11423;DHT22;5768;51.476;7.210;2023-03-01T10:49:56;6.20;10.10
11423;DHT22;5768;51.476;7.210;2023-03-01T10:55:24;6.30;10.30
11423;DHT22;5768;51.476;7.210;2023-03-01T11:00:30;6.40;10.10
11423;DHT22;5768;51.476;7.210;2023-03-01T11:05:32;6.60;10.20
11423;DHT22;5768;51.476;7.210;2023-03-01T11:10:36;6.70;10.10
11423;DHT22;5768;51.476;7.210;2023-03-01T11:15:38;6.70;10.00
11423;DHT22;5768;51.476;7.210;2023-03-01T11:20:41;7.00;10.00
11423;DHT22;5768;51.476;7.210;2023-03-01T11:25:49;7.10;10.20
11423;DHT22;5768;51.476;7.210;2023-03-01T11:30:59;7.20;10.20
11423;DHT22;5768;51.476;7.210;2023-03-01T11:36:10;7.30;9.80
11423;DHT22;5768;51.476;7.210;2023-03-01T11:41:23;7.50;9.90
11423;DHT22;5768;51.476;7.210;2023-03-01T11:46:46;7.60;9.80
11423;DHT22;5768;51.476;7.210;2023-03-01T11:52:11;7.90;9.90
11423;DHT22;5768;51.476;7.210;2023-03-01T11:57:37;8.30;9.60
11423;DHT22;5768;51.476;7.210;2023-03-01T12:03:15;8.30;9.60
11423;DHT22;5768;51.476;7.210;2023-03-01T12:08:32;8.50;9.50
11423;DHT22;5768;51.476;7.210;2023-03-01T12:19:33;9.20;9.50
11423;DHT22;5768;51.476;7.210;2023-03-01T12:25:21;9.50;9.40
11423;DHT22;5768;51.476;7.210;2023-03-01T12:30:39;9.90;9.30
11423;DHT22;5768;51.476;7.210;2023-03-01T12:36:21;10.20;9.20
11423;DHT22;5768;51.476;7.210;2023-03-01T12:41:47;10.50;9.20
11423;DHT22;5768;51.476;7.210;2023-03-01T12:47:11;10.90;9.10
11423;DHT22;5768;51.476;7.210;2023-03-01T12:52:26;11.40;8.90
11423;DHT22;5768;51.476;7.210;2023-03-01T12:57:38;11.80;8.80
11423;DHT22;5768;51.476;7.210;2023-03-01T13:02:52;12.00;8.80
11423;DHT22;5768;51.476;7.210;2023-03-01T13:08:05;12.50;8.60
11423;DHT22;5768;51.476;7.210;2023-03-01T13:13:18;13.10;8.50
11423;DHT22;5768;51.476;7.210;2023-03-01T13:18:30;13.60;8.30
11423;DHT22;5768;51.476;7.210;2023-03-01T13:23:36;13.90;8.10
11423;DHT22;5768;51.476;7.210;2023-03-01T13:28:57;14.60;8.00
11423;DHT22;5768;51.476;7.210;2023-03-01T13:34:02;15.30;7.80
11423;DHT22;5768;51.476;7.210;2023-03-01T13:39:28;15.40;7.50
11423;DHT22;5768;51.476;7.210;2023-03-01T13:44:35;15.90;7.50
11423;DHT22;5768;51.476;7.210;2023-03-01T13:49:44;16.40;7.40
11423;DHT22;5768;51.476;7.210;2023-03-01T13:54:51;16.70;7.30
11423;DHT22;5768;51.476;7.210;2023-03-01T13:59:54;17.90;7.30
11423;DHT22;5768;51.476;7.210;2023-03-01T14:04:59;18.30;6.90
11423;DHT22;5768;51.476;7.210;2023-03-01T14:10:03;19.30;6.80
11423;DHT22;5768;51.476;7.210;2023-03-01T14:15:10;20.20;6.60
11423;DHT22;5768;51.476;7.210;2023-03-01T14:20:23;20.70;6.50
11423;DHT22;5768;51.476;7.210;2023-03-01T14:25:28;21.30;6.30
11423;DHT22;5768;51.476;7.210;2023-03-01T14:30:36;21.30;6.30
11423;DHT22;5768;51.476;7.210;2023-03-01T14:35:41;21.90;6.30
11423;DHT22;5768;51.476;7.210;2023-03-01T14:40:43;22.70;6.00
11423;DHT22;5768;51.476;7.210;2023-03-01T14:45:48;22.30;6.00
11423;DHT22;5768;51.476;7.210;2023-03-01T14:50:53;22.90;5.90
11423;DHT22;5768;51.476;7.210;2023-03-01T14:56:03;23.00;5.90
11423;DHT22;5768;51.476;7.210;2023-03-01T15:01:07;22.60;5.80
11423;DHT22;5768;51.476;7.210;2023-03-01T15:06:18;22.70;5.90
11423;DHT22;5768;51.476;7.210;2023-03-01T15:11:24;23.60;5.80
11423;DHT22;5768;51.476;7.210;2023-03-01T15:16:31;23.80;5.60
11423;DHT22;5768;51.476;7.210;2023-03-01T15:21:37;23.70;5.70
11423;DHT22;5768;51.476;7.210;2023-03-01T15:26:41;23.80;5.60
11423;DHT22;5768;51.476;7.210;2023-03-01T15:31:55;24.40;5.50
11423;DHT22;5768;51.476;7.210;2023-03-01T15:37:01;23.80;5.50
11423;DHT22;5768;51.476;7.210;2023-03-01T15:42:08;23.90;5.50
11423;DHT22;5768;51.476;7.210;2023-03-01T15:47:27;23.90;5.50
11423;DHT22;5768;51.476;7.210;2023-03-01T15:52:35;24.20;5.40
11423;DHT22;5768;51.476;7.210;2023-03-01T15:57:43;24.10;5.40
11423;DHT22;5768;51.476;7.210;2023-03-01T16:02:46;23.20;5.40
11423;DHT22;5768;51.476;7.210;2023-03-01T16:07:49;23.10;5.50
11423;DHT22;5768;51.476;7.210;2023-03-01T16:12:51;22.90;5.40
11423;DHT22;5768;51.476;7.210;2023-03-01T16:17:54;22.60;5.40
11423;DHT22;5768;51.476;7.210;2023-03-01T16:23:04;20.60;5.70
11423;DHT22;5768;51.476;7.210;2023-03-01T16:28:07;19.00;5.90
11423;DHT22;5768;51.476;7.210;2023-03-01T16:33:10;17.70;6.10
11423;DHT22;5768;51.476;7.210;2023-03-01T16:38:13;16.50;6.10
11423;DHT22;5768;51.476;7.210;2023-03-01T16:43:15;15.40;6.40
11423;DHT22;5768;51.476;7.210;2023-03-01T16:48:18;14.10;6.60
11423;DHT22;5768;51.476;7.210;2023-03-01T16:53:21;13.40;6.80
11423;DHT22;5768;51.476;7.210;2023-03-01T16:58:24;12.80;6.90
11423;DHT22;5768;51.476;7.210;2023-03-01T17:03:29;12.40;7.10
11423;DHT22;5768;51.476;7.210;2023-03-01T17:08:37;12.00;7.20
11423;DHT22;5768;51.476;7.210;2023-03-01T17:13:41;11.60;7.30
11423;DHT22;5768;51.476;7.210;2023-03-01T17:18:43;11.10;7.50
11423;DHT22;5768;51.476;7.210;2023-03-01T17:23:48;10.70;7.60
11423;DHT22;5768;51.476;7.210;2023-03-01T17:28:51;10.30;7.70
11423;DHT22;5768;51.476;7.210;2023-03-01T17:33:53;10.20;7.80
11423;DHT22;5768;51.476;7.210;2023-03-01T17:38:57;9.70;7.90
11423;DHT22;5768;51.476;7.210;2023-03-01T17:43:59;9.50;8.00
11423;DHT22;5768;51.476;7.210;2023-03-01T17:49:01;9.30;8.00
11423;DHT22;5768;51.476;7.210;2023-03-01T17:54:05;9.10;8.20
11423;DHT22;5768;51.476;7.210;2023-03-01T17:59:07;8.90;8.20
11423;DHT22;5768;51.476;7.210;2023-03-01T18:04:09;8.70;8.30
11423;DHT22;5768;51.476;7.210;2023-03-01T18:09:13;8.70;8.40
11423;DHT22;5768;51.476;7.210;2023-03-01T18:14:15;8.50;8.30
11423;DHT22;5768;51.476;7.210;2023-03-01T18:19:17;8.40;8.40
11423;DHT22;5768;51.476;7.210;2023-03-01T18:24:22;8.10;8.40
11423;DHT22;5768;51.476;7.210;2023-03-01T18:29:24;8.00;8.50
11423;DHT22;5768;51.476;7.210;2023-03-01T18:34:27;7.80;8.50
11423;DHT22;5768;51.476;7.210;2023-03-01T18:39:31;7.70;8.60
11423;DHT22;5768;51.476;7.210;2023-03-01T18:44:33;7.60;8.60
11423;DHT22;5768;51.476;7.210;2023-03-01T18:49:35;7.50;8.60
11423;DHT22;5768;51.476;7.210;2023-03-01T18:54:39;7.40;8.70
11423;DHT22;5768;51.476;7.210;2023-03-01T18:59:43;7.20;8.80
11423;DHT22;5768;51.476;7.210;2023-03-01T19:04:45;7.00;8.80
11423;DHT22;5768;51.476;7.210;2023-03-01T19:09:52;6.90;8.90
11423;DHT22;5768;51.476;7.210;2023-03-01T19:14:55;7.10;8.90
11423;DHT22;5768;51.476;7.210;2023-03-01T19:19:57;6.90;8.90
11423;DHT22;5768;51.476;7.210;2023-03-01T19:25:01;6.80;9.00
11423;DHT22;5768;51.476;7.210;2023-03-01T19:30:04;6.70;9.10
11423;DHT22;5768;51.476;7.210;2023-03-01T19:35:07;6.60;9.10
11423;DHT22;5768;51.476;7.210;2023-03-01T19:40:11;6.60;9.20
11423;DHT22;5768;51.476;7.210;2023-03-01T19:45:17;6.50;9.30
11423;DHT22;5768;51.476;7.210;2023-03-01T19:50:19;6.50;9.40
11423;DHT22;5768;51.476;7.210;2023-03-01T19:55:23;6.30;9.40
11423;DHT22;5768;51.476;7.210;2023-03-01T20:00:25;6.30;9.50
11423;DHT22;5768;51.476;7.210;2023-03-01T20:05:27;6.20;9.40
11423;DHT22;5768;51.476;7.210;2023-03-01T20:10:32;6.20;9.50
11423;DHT22;5768;51.476;7.210;2023-03-01T20:15:34;6.20;9.50
11423;DHT22;5768;51.476;7.210;2023-03-01T20:20:36;6.10;9.50
11423;DHT22;5768;51.476;7.210;2023-03-01T20:25:40;6.00;9.60
11423;DHT22;5768;51.476;7.210;2023-03-01T20:30:42;5.90;9.60
11423;DHT22;5768;51.476;7.210;2023-03-01T20:35:44;5.90;9.70
11423;DHT22;5768;51.476;7.210;2023-03-01T20:40:48;5.70;9.80
11423;DHT22;5768;51.476;7.210;2023-03-01T20:45:50;5.60;9.80
11423;DHT22;5768;51.476;7.210;2023-03-01T20:50:52;5.60;9.90
11423;DHT22;5768;51.476;7.210;2023-03-01T20:56:00;5.50;9.90
11423;DHT22;5768;51.476;7.210;2023-03-01T21:01:04;5.40;10.00
11423;DHT22;5768;51.476;7.210;2023-03-01T21:06:07;5.40;10.00
11423;DHT22;5768;51.476;7.210;2023-03-01T21:11:10;5.20;10.00
11423;DHT22;5768;51.476;7.210;2023-03-01T21:16:12;5.30;10.00
11423;DHT22;5768;51.476;7.210;2023-03-01T21:21:17;5.20;10.10
11423;DHT22;5768;51.476;7.210;2023-03-01T21:26:23;5.10;10.10
11423;DHT22;5768;51.476;7.210;2023-03-01T21:31:28;5.10;10.10
11423;DHT22;5768;51.476;7.210;2023-03-01T21:36:33;5.20;10.10
11423;DHT22;5768;51.476;7.210;2023-03-01T21:41:37;5.10;10.10
11423;DHT22;5768;51.476;7.210;2023-03-01T21:46:39;5.10;10.10
11423;DHT22;5768;51.476;7.210;2023-03-01T21:51:42;5.10;10.10
11423;DHT22;5768;51.476;7.210;2023-03-01T21:56:46;5.10;10.10
11423;DHT22;5768;51.476;7.210;2023-03-01T22:01:50;5.00;10.10
11423;DHT22;5768;51.476;7.210;2023-03-01T22:06:53;4.90;10.10
11423;DHT22;5768;51.476;7.210;2023-03-01T22:11:56;4.80;10.20
11423;DHT22;5768;51.476;7.210;2023-03-01T22:17:01;4.80;10.20
11423;DHT22;5768;51.476;7.210;2023-03-01T22:22:03;4.80;10.20
11423;DHT22;5768;51.476;7.210;2023-03-01T22:27:07;4.80;10.20
11423;DHT22;5768;51.476;7.210;2023-03-01T22:32:09;4.80;10.20
11423;DHT22;5768;51.476;7.210;2023-03-01T22:37:11;4.70;10.20
11423;DHT22;5768;51.476;7.210;2023-03-01T22:42:14;4.70;10.20
11423;DHT22;5768;51.476;7.210;2023-03-01T22:47:16;4.70;10.30
11423;DHT22;5768;51.476;7.210;2023-03-01T22:52:18;4.60;10.20
11423;DHT22;5768;51.476;7.210;2023-03-01T22:57:22;4.60;10.20
11423;DHT22;5768;51.476;7.210;2023-03-01T23:02:24;4.60;10.30
11423;DHT22;5768;51.476;7.210;2023-03-01T23:07:26;4.50;10.30
11423;DHT22;5768;51.476;7.210;2023-03-01T23:12:30;4.50;10.40
11423;DHT22;5768;51.476;7.210;2023-03-01T23:17:33;4.50;10.30
11423;DHT22;5768;51.476;7.210;2023-03-01T23:22:35;4.50;10.30
11423;DHT22;5768;51.476;7.210;2023-03-01T23:27:38;4.40;10.40
11423;DHT22;5768;51.476;7.210;2023-03-01T23:32:42;4.40;10.30
11423;DHT22;5768;51.476;7.210;2023-03-01T23:37:44;4.40;10.40
11423;DHT22;5768;51.476;7.210;2023-03-01T23:42:47;4.30;10.40
11423;DHT22;5768;51.476;7.210;2023-03-01T23:47:52;4.30;10.40
11423;DHT22;5768;51.476;7.210;2023-03-01T23:52:55;4.30;10.40
11423;DHT22;5768;51.476;7.210;2023-03-01T23:57:58;4.30;10.40
